createdAt,value
2018-02-07T00:02:08.690Z,-0.41
2018-02-07T00:04:36.248Z,-0.48
2018-02-07T00:07:04.142Z,-0.53
2018-02-07T00:09:32.010Z,-0.51
2018-02-07T00:11:59.632Z,-0.48
2018-02-07T00:14:27.232Z,-0.52
2018-02-07T00:16:54.786Z,-0.48
2018-02-07T00:19:22.361Z,-0.42
2018-02-07T00:21:49.984Z,-0.47
2018-02-07T00:24:17.530Z,-0.51
2018-02-07T00:26:45.081Z,-0.49
2018-02-07T00:29:12.642Z,-0.37
2018-02-07T00:31:40.224Z,-0.40
2018-02-07T00:34:07.839Z,-0.40
2018-02-07T00:36:35.624Z,-0.35
2018-02-07T00:39:03.185Z,-0.36
2018-02-07T00:41:30.745Z,-0.27
2018-02-07T00:43:58.593Z,-0.37
2018-02-07T00:46:26.167Z,-0.37
2018-02-07T00:48:53.703Z,-0.43
2018-02-07T00:51:21.259Z,-0.48
2018-02-07T00:53:48.819Z,-0.50
2018-02-07T00:56:16.588Z,-0.49
2018-02-07T00:58:44.111Z,-0.51
2018-02-07T01:01:11.680Z,-0.52
2018-02-07T01:03:39.595Z,-0.47
2018-02-07T01:06:07.211Z,-0.48
2018-02-07T01:08:34.759Z,-0.46
2018-02-07T01:11:02.351Z,-0.47
2018-02-07T01:13:29.910Z,-0.45
2018-02-07T01:15:57.473Z,-0.35
2018-02-07T01:18:25.056Z,-0.35
2018-02-07T01:20:52.717Z,-0.42
2018-02-07T01:23:20.295Z,-0.37
2018-02-07T01:25:47.854Z,-0.41
2018-02-07T01:28:15.386Z,-0.45
2018-02-07T01:30:42.919Z,-0.49
2018-02-07T01:33:10.515Z,-0.49
2018-02-07T01:35:38.114Z,-0.49
2018-02-07T01:38:05.674Z,-0.47
2018-02-07T01:40:33.266Z,-0.37
2018-02-07T01:43:00.820Z,-0.44
2018-02-07T01:45:28.411Z,-0.46
2018-02-07T01:47:55.947Z,-0.46
2018-02-07T01:50:23.749Z,-0.51
2018-02-07T01:52:51.327Z,-0.46
2018-02-07T01:55:18.900Z,-0.54
2018-02-07T01:57:46.434Z,-0.50
2018-02-07T02:00:14.290Z,-0.48
2018-02-07T02:02:41.842Z,-0.41
2018-02-07T02:07:43.265Z,-0.36
2018-02-07T02:10:10.964Z,-0.43
2018-02-07T02:12:38.496Z,-0.46
2018-02-07T02:15:06.314Z,-0.35
2018-02-07T02:17:33.848Z,-0.41
2018-02-07T02:20:01.646Z,-0.46
2018-02-07T02:22:29.245Z,-0.45
2018-02-07T02:24:56.825Z,-0.47
2018-02-07T02:27:24.642Z,-0.55
2018-02-07T02:29:52.257Z,-0.48
2018-02-07T02:32:20.059Z,-0.51
2018-02-07T02:34:47.584Z,-0.51
2018-02-07T02:37:15.177Z,-0.36
2018-02-07T02:39:42.706Z,-0.48
2018-02-07T02:42:10.294Z,-0.50
2018-02-07T02:44:37.860Z,-0.49
2018-02-07T02:47:05.410Z,-0.51
2018-02-07T02:49:33.041Z,-0.47
2018-02-07T02:52:00.857Z,-0.38
2018-02-07T02:54:28.397Z,-0.44
2018-02-07T02:56:56.021Z,-0.52
2018-02-07T02:59:23.584Z,-0.54
2018-02-07T03:01:51.109Z,-0.48
2018-02-07T03:04:18.699Z,-0.42
2018-02-07T03:06:46.260Z,-0.50
2018-02-07T03:09:13.824Z,-0.43
2018-02-07T03:11:41.395Z,-0.45
2018-02-07T03:14:09.301Z,-0.47
2018-02-07T03:16:36.871Z,-0.42
2018-02-07T03:19:04.435Z,-0.34
2018-02-07T03:21:31.973Z,-0.30
2018-02-07T03:23:59.549Z,-0.29
2018-02-07T03:26:27.112Z,-0.37
2018-02-07T03:28:54.982Z,-0.44
2018-02-07T03:31:22.497Z,-0.43
2018-02-07T03:33:50.075Z,-0.42
2018-02-07T03:36:17.617Z,-0.37
2018-02-07T03:38:45.150Z,-0.38
2018-02-07T03:41:13.052Z,-0.28
2018-02-07T03:43:40.573Z,-0.32
2018-02-07T03:46:08.158Z,-0.32
2018-02-07T03:48:35.737Z,-0.34
2018-02-07T03:51:03.548Z,-0.43
2018-02-07T03:53:31.416Z,-0.50
2018-02-07T03:55:59.587Z,-0.54
2018-02-07T03:58:27.161Z,-0.56
2018-02-07T04:00:54.714Z,-0.59
2018-02-07T04:03:22.317Z,-0.54
2018-02-07T04:05:49.854Z,-0.53
2018-02-07T04:08:17.697Z,-0.50
2018-02-07T04:10:45.560Z,-0.39
2018-02-07T04:13:13.124Z,-0.49
2018-02-07T04:15:40.644Z,-0.52
2018-02-07T04:18:08.201Z,-0.56
2018-02-07T04:20:35.765Z,-0.54
2018-02-07T04:23:03.312Z,-0.45
2018-02-07T04:25:30.869Z,-0.48
2018-02-07T04:27:58.480Z,-0.52
2018-02-07T04:30:26.025Z,-0.45
2018-02-07T04:32:53.584Z,-0.41
2018-02-07T04:35:21.113Z,-0.43
2018-02-07T04:37:48.655Z,-0.41
2018-02-07T04:40:16.237Z,-0.41
2018-02-07T04:42:43.779Z,-0.49
2018-02-07T04:45:11.614Z,-0.45
2018-02-07T04:47:39.198Z,-0.48
2018-02-07T04:50:06.743Z,-0.48
2018-02-07T04:52:34.378Z,-0.55
2018-02-07T04:55:01.981Z,-0.56
2018-02-07T04:57:29.522Z,-0.60
2018-02-07T04:59:57.061Z,-0.53
2018-02-07T05:02:24.630Z,-0.46
2018-02-07T05:04:52.178Z,-0.53
2018-02-07T05:07:19.726Z,-0.55
2018-02-07T05:09:47.311Z,-0.42
2018-02-07T05:12:14.869Z,-0.34
2018-02-07T05:14:42.403Z,-0.34
2018-02-07T05:17:10.065Z,-0.37
2018-02-07T05:19:37.616Z,-0.44
2018-02-07T05:22:05.176Z,-0.51
2018-02-07T05:24:32.816Z,-0.52
2018-02-07T05:27:00.352Z,-0.54
2018-02-07T05:29:27.904Z,-0.54
2018-02-07T05:31:55.464Z,-0.44
2018-02-07T05:34:22.997Z,-0.44
2018-02-07T05:36:50.539Z,-0.43
2018-02-07T05:39:18.126Z,-0.42
2018-02-07T05:41:45.728Z,-0.46
2018-02-07T05:44:13.387Z,-0.52
2018-02-07T05:46:40.943Z,-0.56
2018-02-07T05:49:08.830Z,-0.56
2018-02-07T05:51:36.348Z,-0.56
2018-02-07T05:54:03.934Z,-0.42
2018-02-07T05:56:31.501Z,-0.35
2018-02-07T05:58:59.085Z,-0.47
2018-02-07T06:01:27.018Z,-0.50
2018-02-07T06:03:54.553Z,-0.51
2018-02-07T06:06:22.456Z,-0.45
2018-02-07T06:08:50.039Z,-0.35
2018-02-07T06:11:17.876Z,-0.40
2018-02-07T06:13:45.418Z,-0.32
2018-02-07T06:16:13.103Z,-0.38
2018-02-07T06:18:40.660Z,-0.35
2018-02-07T06:21:08.207Z,-0.41
2018-02-07T06:23:35.846Z,-0.38
2018-02-07T06:26:03.402Z,-0.32
2018-02-07T06:28:30.958Z,-0.37
2018-02-07T06:30:58.574Z,-0.27
2018-02-07T06:33:26.451Z,-0.26
2018-02-07T06:35:54.009Z,-0.21
2018-02-07T06:38:21.579Z,-0.26
2018-02-07T06:40:49.239Z,-0.34
2018-02-07T06:43:16.784Z,-0.39
2018-02-07T06:45:44.380Z,-0.41
2018-02-07T06:48:11.948Z,-0.32
2018-02-07T06:50:39.532Z,-0.35
2018-02-07T06:53:07.093Z,-0.36
2018-02-07T06:55:34.683Z,-0.35
2018-02-07T06:58:02.235Z,-0.25
2018-02-07T07:00:30.223Z,-0.15
2018-02-07T07:02:58.188Z,-0.10
2018-02-07T07:05:25.792Z,-0.20
2018-02-07T07:07:53.427Z,-0.19
2018-02-07T07:10:21.017Z,-0.18
2018-02-07T07:12:48.623Z,-0.22
2018-02-07T07:15:16.191Z,-0.22
2018-02-07T07:17:43.791Z,-0.10
2018-02-07T07:20:11.375Z,-0.09
2018-02-07T07:22:39.107Z,-0.04
2018-02-07T07:25:06.666Z,0.00
2018-02-07T07:27:34.619Z,-0.04
2018-02-07T07:30:02.203Z,0.04
2018-02-07T07:32:29.761Z,0.03
2018-02-07T07:34:57.297Z,0.04
2018-02-07T07:37:25.166Z,0.12
2018-02-07T07:39:52.717Z,0.16
2018-02-07T07:42:20.254Z,0.13
2018-02-07T07:44:47.848Z,0.06
2018-02-07T07:47:15.416Z,0.15
2018-02-07T07:49:43.003Z,0.29
2018-02-07T07:52:10.620Z,0.32
2018-02-07T07:54:38.157Z,0.40
2018-02-07T07:57:05.782Z,0.34
2018-02-07T07:59:33.381Z,0.35
2018-02-07T08:02:01.594Z,0.34
2018-02-07T08:04:29.465Z,0.44
2018-02-07T08:06:57.045Z,0.51
2018-02-07T08:09:24.578Z,0.43
2018-02-07T08:11:52.780Z,0.41
2018-02-07T08:14:20.622Z,0.33
2018-02-07T08:16:49.166Z,0.35
2018-02-07T08:19:17.092Z,0.38
2018-02-07T08:21:44.942Z,0.39
2018-02-07T08:24:12.462Z,0.43
2018-02-07T08:26:40.892Z,0.37
2018-02-07T08:29:08.456Z,0.48
2018-02-07T08:31:35.983Z,0.51
2018-02-07T08:34:03.519Z,0.50
2018-02-07T08:36:31.330Z,0.63
2018-02-07T08:38:59.200Z,0.63
2018-02-07T08:41:26.759Z,0.72
2018-02-07T08:43:54.341Z,0.66
2018-02-07T08:46:21.890Z,0.61
2018-02-07T08:48:49.440Z,0.62
2018-02-07T08:51:17.030Z,0.55
2018-02-07T08:53:44.583Z,0.50
2018-02-07T08:56:12.150Z,0.49
2018-02-07T08:58:39.784Z,0.56
2018-02-07T09:01:07.312Z,0.62
2018-02-07T09:03:34.866Z,0.62
2018-02-07T09:06:02.691Z,0.69
2018-02-07T09:08:30.599Z,0.71
2018-02-07T09:10:58.640Z,0.68
2018-02-07T09:13:26.644Z,0.68
2018-02-07T09:15:54.287Z,0.72
2018-02-07T09:18:22.162Z,0.73
2018-02-07T09:20:49.913Z,0.76
2018-02-07T09:23:18.395Z,0.80
2018-02-07T09:25:46.261Z,0.86
2018-02-07T09:28:13.925Z,0.96
2018-02-07T09:30:41.628Z,1.13
2018-02-07T09:33:09.247Z,1.04
2018-02-07T09:35:36.928Z,1.00
2018-02-07T09:38:05.033Z,0.93
2018-02-07T09:40:32.636Z,0.89
2018-02-07T09:43:00.603Z,0.82
2018-02-07T09:45:28.214Z,0.84
2018-02-07T09:47:56.133Z,0.92
2018-02-07T09:50:23.859Z,0.93
2018-02-07T09:52:51.394Z,0.80
2018-02-07T09:55:18.952Z,0.78
2018-02-07T09:57:46.533Z,0.82
2018-02-07T10:00:14.453Z,0.91
2018-02-07T10:02:42.322Z,0.98
2018-02-07T10:05:09.964Z,0.99
2018-02-07T10:07:37.537Z,0.96
2018-02-07T10:10:05.245Z,1.05
2018-02-07T10:12:32.880Z,1.21
2018-02-07T10:15:00.427Z,1.18
2018-02-07T10:17:28.290Z,1.21
2018-02-07T10:19:55.990Z,1.21
2018-02-07T10:22:23.742Z,1.33
2018-02-07T10:24:53.698Z,1.41
2018-02-07T10:27:22.757Z,1.34
2018-02-07T10:29:50.310Z,1.42
2018-02-07T10:32:18.634Z,1.51
2018-02-07T10:34:46.391Z,1.57
2018-02-07T10:37:14.490Z,1.53
2018-02-07T10:39:42.291Z,1.54
2018-02-07T10:42:10.057Z,1.64
2018-02-07T10:44:39.348Z,1.72
2018-02-07T10:47:06.957Z,1.77
2018-02-07T10:49:34.509Z,1.77
2018-02-07T10:52:02.337Z,1.86
2018-02-07T10:54:29.976Z,1.90
2018-02-07T10:56:57.531Z,2.08
2018-02-07T10:59:25.075Z,2.23
2018-02-07T11:01:52.895Z,2.25
2018-02-07T11:04:20.660Z,2.40
2018-02-07T11:06:48.187Z,2.44
2018-02-07T11:09:15.783Z,2.47
2018-02-07T11:11:43.631Z,2.58
2018-02-07T11:14:11.182Z,2.54
2018-02-07T11:16:38.725Z,2.57
2018-02-07T11:19:06.322Z,2.58
2018-02-07T11:21:34.185Z,2.63
2018-02-07T11:24:01.929Z,2.59
2018-02-07T11:26:29.594Z,2.59
2018-02-07T11:28:57.374Z,2.65
2018-02-07T11:31:24.977Z,2.60
2018-02-07T11:33:52.544Z,2.66
2018-02-07T11:36:20.369Z,2.74
2018-02-07T11:38:47.942Z,2.74
2018-02-07T11:41:15.543Z,2.83
2018-02-07T11:43:43.597Z,2.80
2018-02-07T11:46:11.853Z,2.88
2018-02-07T11:48:41.115Z,2.82
2018-02-07T11:51:09.076Z,2.86
2018-02-07T11:53:37.405Z,2.88
2018-02-07T11:56:05.031Z,2.93
2018-02-07T11:58:32.605Z,3.05
2018-02-07T12:01:00.307Z,3.16
2018-02-07T12:03:28.183Z,3.17
2018-02-07T12:05:56.181Z,3.33
2018-02-07T12:08:26.317Z,3.51
2018-02-07T12:10:54.359Z,3.73
2018-02-07T12:13:22.637Z,3.72
2018-02-07T12:15:50.271Z,3.80
2018-02-07T12:18:17.978Z,3.71
2018-02-07T12:20:46.721Z,3.66
2018-02-07T12:23:14.576Z,3.58
2018-02-07T12:25:42.191Z,3.63
2018-02-07T12:28:10.002Z,3.49
2018-02-07T12:30:37.709Z,3.51
2018-02-07T12:33:05.478Z,3.58
2018-02-07T12:35:33.101Z,3.65
2018-02-07T12:38:00.745Z,3.58
2018-02-07T12:40:28.323Z,3.39
2018-02-07T12:42:56.001Z,3.44
2018-02-07T12:45:23.643Z,3.46
2018-02-07T12:47:53.740Z,3.45
2018-02-07T12:50:21.274Z,3.47
2018-02-07T12:52:48.863Z,3.55
2018-02-07T12:55:16.741Z,3.61
2018-02-07T12:57:44.281Z,3.41
2018-02-07T13:00:13.444Z,3.47
2018-02-07T13:02:40.997Z,3.55
2018-02-07T13:05:08.567Z,3.58
2018-02-07T13:07:36.498Z,3.65
2018-02-07T13:10:04.937Z,3.63
2018-02-07T13:12:32.506Z,3.58
2018-02-07T13:15:00.305Z,3.47
2018-02-07T13:17:27.877Z,3.45
2018-02-07T13:19:55.734Z,3.55
2018-02-07T13:22:23.310Z,3.54
2018-02-07T13:24:50.871Z,3.62
2018-02-07T13:27:18.410Z,3.52
2018-02-07T13:29:45.980Z,3.51
2018-02-07T13:32:13.735Z,3.47
2018-02-07T13:34:41.505Z,3.39
2018-02-07T13:37:09.373Z,3.41
2018-02-07T13:39:36.933Z,3.36
2018-02-07T13:42:04.486Z,3.31
2018-02-07T13:44:32.071Z,3.26
2018-02-07T13:46:59.660Z,3.28
2018-02-07T13:49:27.215Z,3.35
2018-02-07T13:51:54.749Z,3.31
2018-02-07T13:54:22.349Z,3.31
2018-02-07T13:56:49.904Z,3.22
2018-02-07T13:59:17.498Z,3.22
2018-02-07T14:01:45.387Z,3.35
2018-02-07T14:04:12.951Z,3.28
2018-02-07T14:06:40.817Z,3.10
2018-02-07T14:09:08.441Z,3.19
2018-02-07T14:11:36.013Z,3.17
2018-02-07T14:14:03.579Z,3.11
2018-02-07T14:16:31.163Z,3.14
2018-02-07T14:18:58.842Z,3.17
2018-02-07T14:21:26.467Z,3.11
2018-02-07T14:23:54.063Z,3.09
2018-02-07T14:26:21.661Z,3.05
2018-02-07T14:28:49.620Z,3.01
2018-02-07T14:31:17.182Z,2.91
2018-02-07T14:33:44.724Z,2.83
2018-02-07T14:36:12.283Z,2.85
2018-02-07T14:38:40.008Z,2.88
2018-02-07T14:41:07.626Z,2.82
2018-02-07T14:43:35.275Z,2.82
2018-02-07T14:46:02.854Z,2.79
2018-02-07T14:48:30.458Z,2.81
2018-02-07T14:50:58.043Z,2.75
2018-02-07T14:53:25.627Z,2.78
2018-02-07T14:55:53.278Z,2.81
2018-02-07T14:58:20.846Z,2.74
2018-02-07T15:00:48.464Z,2.68
2018-02-07T15:03:15.994Z,2.75
2018-02-07T15:05:43.545Z,2.71
2018-02-07T15:08:11.125Z,2.66
2018-02-07T15:10:38.650Z,2.65
2018-02-07T15:13:06.253Z,2.60
2018-02-07T15:15:34.165Z,2.56
2018-02-07T15:18:03.671Z,2.59
2018-02-07T15:20:31.213Z,2.59
2018-02-07T15:22:58.800Z,2.61
2018-02-07T15:25:26.336Z,2.58
2018-02-07T15:27:53.976Z,2.50
2018-02-07T15:30:21.620Z,2.47
2018-02-07T15:32:49.378Z,2.45
2018-02-07T15:35:17.731Z,2.43
2018-02-07T15:37:45.441Z,2.39
2018-02-07T15:40:13.046Z,2.38
2018-02-07T15:42:40.652Z,2.40
2018-02-07T15:45:08.219Z,2.29
2018-02-07T15:47:35.771Z,2.32
2018-02-07T15:50:03.385Z,2.25
2018-02-07T15:52:31.063Z,2.19
2018-02-07T15:54:59.520Z,2.08
2018-02-07T15:57:27.755Z,2.03
2018-02-07T15:59:55.875Z,2.01
2018-02-07T16:02:23.746Z,2.01
2018-02-07T16:04:52.655Z,2.04
2018-02-07T16:07:22.030Z,2.06
2018-02-07T16:09:49.993Z,2.16
2018-02-07T16:12:38.745Z,2.07
2018-02-07T16:15:07.941Z,1.97
2018-02-07T16:17:35.868Z,1.89
2018-02-07T16:20:05.879Z,1.84
2018-02-07T16:22:33.613Z,1.91
2018-02-07T16:25:01.298Z,1.90
2018-02-07T16:27:28.897Z,1.95
2018-02-07T16:29:56.450Z,1.96
2018-02-07T16:32:25.224Z,1.89
2018-02-07T16:34:53.075Z,1.99
2018-02-07T16:37:20.664Z,1.91
2018-02-07T16:39:48.251Z,1.89
2018-02-07T16:42:15.798Z,1.82
2018-02-07T16:44:43.357Z,1.73
2018-02-07T16:47:11.179Z,1.68
2018-02-07T16:49:38.805Z,1.64
2018-02-07T16:52:06.350Z,1.63
2018-02-07T16:54:34.074Z,1.71
2018-02-07T16:57:02.070Z,1.74
2018-02-07T16:59:29.836Z,1.73
2018-02-07T17:01:57.419Z,1.68
2018-02-07T17:04:25.246Z,1.61
2018-02-07T17:06:52.870Z,1.52
2018-02-07T17:09:20.679Z,1.49
2018-02-07T17:11:48.338Z,1.45
2018-02-07T17:14:16.536Z,1.45
2018-02-07T17:16:44.117Z,1.43
2018-02-07T17:19:11.977Z,1.44
2018-02-07T17:21:39.609Z,1.60
2018-02-07T17:24:07.384Z,1.49
2018-02-07T17:26:34.980Z,1.60
2018-02-07T17:29:03.110Z,1.58
2018-02-07T17:31:30.868Z,1.59
2018-02-07T17:33:58.716Z,1.56
2018-02-07T17:36:26.292Z,1.55
2018-02-07T17:38:53.862Z,1.52
2018-02-07T17:41:21.464Z,1.44
2018-02-07T17:43:49.199Z,1.41
2018-02-07T17:46:16.804Z,1.42
2018-02-07T17:48:44.510Z,1.33
2018-02-07T17:51:12.024Z,1.25
2018-02-07T17:53:39.582Z,1.19
2018-02-07T17:56:07.118Z,1.24
2018-02-07T17:58:34.627Z,1.36
2018-02-07T18:01:02.208Z,1.32
2018-02-07T18:03:29.740Z,1.33
2018-02-07T18:05:57.279Z,1.27
2018-02-07T18:08:24.867Z,1.24
2018-02-07T18:10:52.572Z,1.14
2018-02-07T18:13:20.134Z,1.13
2018-02-07T18:15:47.701Z,1.11
2018-02-07T18:18:15.290Z,1.14
2018-02-07T18:20:42.805Z,1.01
2018-02-07T18:23:10.401Z,0.98
2018-02-07T18:25:38.944Z,0.97
2018-02-07T18:28:07.702Z,0.95
2018-02-07T18:30:35.291Z,0.97
2018-02-07T18:33:02.814Z,0.97
2018-02-07T18:35:30.353Z,0.98
2018-02-07T18:37:58.163Z,0.91
2018-02-07T18:40:25.742Z,0.94
2018-02-07T18:42:53.406Z,0.83
2018-02-07T18:45:20.986Z,0.81
2018-02-07T18:47:48.815Z,0.80
2018-02-07T18:50:17.285Z,0.80
2018-02-07T18:52:45.206Z,0.85
2018-02-07T18:55:13.333Z,0.84
2018-02-07T18:57:40.911Z,0.72
2018-02-07T19:00:09.022Z,0.67
2018-02-07T19:02:36.552Z,0.68
2018-02-07T19:05:04.110Z,0.71
2018-02-07T19:07:32.202Z,0.74
2018-02-07T19:10:00.038Z,0.70
2018-02-07T19:12:27.587Z,0.61
2018-02-07T19:14:55.176Z,0.65
2018-02-07T19:17:22.928Z,0.68
2018-02-07T19:19:51.540Z,0.66
2018-02-07T19:22:19.264Z,0.61
2018-02-07T19:24:46.835Z,0.49
2018-02-07T19:27:14.383Z,0.58
2018-02-07T19:29:42.007Z,0.58
2018-02-07T19:32:09.574Z,0.57
2018-02-07T19:34:37.095Z,0.57
2018-02-07T19:37:04.661Z,0.58
2018-02-07T19:39:32.253Z,0.55
2018-02-07T19:41:59.942Z,0.56
2018-02-07T19:44:27.613Z,0.49
2018-02-07T19:46:55.227Z,0.46
2018-02-07T19:49:22.931Z,0.43
2018-02-07T19:51:50.618Z,0.47
2018-02-07T19:54:18.249Z,0.45
2018-02-07T19:56:45.877Z,0.50
2018-02-07T19:59:13.634Z,0.49
2018-02-07T20:01:41.332Z,0.45
2018-02-07T20:04:09.365Z,0.41
2018-02-07T20:06:37.337Z,0.51
2018-02-07T20:09:06.305Z,0.46
2018-02-07T20:11:34.174Z,0.47
2018-02-07T20:14:01.734Z,0.42
2018-02-07T20:16:29.314Z,0.37
2018-02-07T20:18:56.880Z,0.42
2018-02-07T20:21:24.466Z,0.40
2018-02-07T20:23:52.281Z,0.32
2018-02-07T20:26:19.856Z,0.41
2018-02-07T20:28:47.716Z,0.37
2018-02-07T20:31:15.383Z,0.41
2018-02-07T20:33:42.978Z,0.31
2018-02-07T20:36:10.626Z,0.37
2018-02-07T20:38:38.178Z,0.32
2018-02-07T20:41:05.712Z,0.32
2018-02-07T20:43:33.304Z,0.22
2018-02-07T20:46:01.150Z,0.20
2018-02-07T20:48:29.745Z,0.19
2018-02-07T20:50:58.564Z,0.24
2018-02-07T20:53:26.221Z,0.23
2018-02-07T20:55:53.814Z,0.22
2018-02-07T20:58:21.454Z,0.21
2018-02-07T21:00:49.136Z,0.17
2018-02-07T21:03:16.714Z,0.19
2018-02-07T21:05:44.343Z,0.23
2018-02-07T21:08:11.980Z,0.19
2018-02-07T21:10:39.558Z,0.22
2018-02-07T21:13:07.135Z,0.18
2018-02-07T21:15:34.725Z,0.12
2018-02-07T21:18:02.427Z,0.08
2018-02-07T21:20:30.040Z,0.05
2018-02-07T21:22:57.647Z,0.18
2018-02-07T21:25:25.222Z,0.13
2018-02-07T21:27:53.579Z,0.06
2018-02-07T21:30:22.501Z,0.05
2018-02-07T21:32:50.236Z,0.04
2018-02-07T21:35:18.813Z,0.08
2018-02-07T21:37:46.403Z,0.07
2018-02-07T21:40:13.945Z,0.01
2018-02-07T21:42:41.531Z,-0.03
2018-02-07T21:45:09.353Z,-0.05
2018-02-07T21:47:36.939Z,-0.08
2018-02-07T21:50:04.706Z,-0.07
2018-02-07T21:52:32.274Z,-0.08
2018-02-07T21:54:59.948Z,-0.13
2018-02-07T21:57:27.737Z,-0.14
2018-02-07T21:59:55.325Z,-0.16
2018-02-07T22:02:23.017Z,-0.18
2018-02-07T22:04:50.707Z,-0.18
2018-02-07T22:07:23.274Z,-0.19
2018-02-07T22:09:50.855Z,-0.14
2018-02-07T22:12:18.419Z,-0.09
2018-02-07T22:14:46.007Z,-0.14
2018-02-07T22:17:13.606Z,-0.09
2018-02-07T22:19:41.134Z,-0.21
2018-02-07T22:22:08.671Z,-0.22
2018-02-07T22:24:36.236Z,-0.21
2018-02-07T22:27:03.909Z,-0.23
2018-02-07T22:29:31.437Z,-0.30
2018-02-07T22:31:58.995Z,-0.33
2018-02-07T22:34:26.555Z,-0.36
2018-02-07T22:36:54.099Z,-0.34
2018-02-07T22:39:21.670Z,-0.37
2018-02-07T22:41:49.511Z,-0.42
2018-02-07T22:44:17.093Z,-0.38
2018-02-07T22:46:44.937Z,-0.43
2018-02-07T22:49:12.490Z,-0.43
2018-02-07T22:51:40.021Z,-0.43
2018-02-07T22:54:07.645Z,-0.47
2018-02-07T22:56:35.212Z,-0.48
2018-02-07T22:59:02.778Z,-0.51
2018-02-07T23:01:30.391Z,-0.54
2018-02-07T23:03:57.976Z,-0.52
2018-02-07T23:06:25.568Z,-0.49
2018-02-07T23:08:53.134Z,-0.45
2018-02-07T23:11:20.714Z,-0.58
2018-02-07T23:13:48.252Z,-0.55
2018-02-07T23:16:15.824Z,-0.59
2018-02-07T23:18:43.407Z,-0.61
2018-02-07T23:21:10.963Z,-0.58
2018-02-07T23:23:38.554Z,-0.64
2018-02-07T23:26:06.108Z,-0.54
2018-02-07T23:28:33.698Z,-0.63
2018-02-07T23:31:01.283Z,-0.55
2018-02-07T23:33:28.832Z,-0.57
2018-02-07T23:35:56.386Z,-0.61
2018-02-07T23:38:24.147Z,-0.64
2018-02-07T23:40:51.709Z,-0.74
2018-02-07T23:43:19.558Z,-0.76
2018-02-07T23:45:48.138Z,-0.81
2018-02-07T23:48:15.678Z,-0.84
2018-02-07T23:50:43.234Z,-0.84
2018-02-07T23:53:10.813Z,-0.79
2018-02-07T23:55:38.364Z,-0.83
2018-02-07T23:58:05.898Z,-0.77
